Aeroporto :
LOGIN :

Iscrizione | Disclaimer

   EN    FR    IT 

 










Sommario :    VFR   VFR Marginale   IFR   IFR Intensivo   IFR Molto Intensivo
Visibilità : 
Base nubi : 
>= 8 km
>= 3000ft
5 / 8 km
1000 / 3000 ft
1500m / 5 km
500 / 1000 ft
800 / 1500m
200 / 500 ft
< 800m
< 200 ft
Simboli :   Temporali  Nebbia  Neve Forte  Precipitazioni Forti  Vento > 20 kt
SIGMETs :   Varie  Temporali  Ghiacco  Turbolenza  Onda orograficha  Ceneri Vulcaniche






- Altitudine del aeroporto : 20 ft


EBFN - Koksijde

ULTIMO METAR :
  • 031955Z AUTO 01012KT 9999 BKN011/// 14/11 Q1004 GRN

METARs OBSOLETI :
  • 031925Z AUTO 01011KT 9999 BKN011/// BKN090/// 14/11 Q1004 GRN
  • 031855Z AUTO 36012KT 9999 BKN011/// 14/11 Q1004 GRN
  • 031825Z AUTO 36013KT 9999 BKN010/// 14/11 Q1004 GRN
  • 031755Z AUTO 36013KT 9999 BKN011/// 15/12 Q1005 GRN
  • 031736Z AUTO 01014KT 9999 SCT011/// 15/11 Q1005 GRN

TAF TAF EBFN
Valido dal 03 a 19 ore il 04 a 07 ore UTC


031541Z 0319/0407 36017KT 9999 FEW012 BKN110
TEMPO 0321/0407 BKN010 BKN100
PROB30
TEMPO 0405/0407 6000 -SHRA SCT015 SCT040



MetMap, La meteo Aeronautica in un colpo d'occhio ! - Copyright ORBIFLY Dicembre 2007 - Disclaimer

ORBIFLY MET'MAP TEAM :

Programmazione e sviluppo : Alexandra Zaïnal
Concezione : Baudouin d'Aumeries
Aiuto per la programmazione : Marc-Olivier Méhu
Supporto tecnico e logistico : Manuel Goepfert
Aiuto per la traduzione : Arnaldo La Scala

Contatto : metmap@orbifly.com




FONTI E CREDITI :

   NOAA